sensor_id;sensor_type;location;lat;lon;timestamp;temperature;humidity
72772;SHT30;60894;42.544;1.516;2024-02-04T00:00:20;5.77;63.59
72772;SHT30;60894;42.544;1.516;2024-02-04T00:02:47;5.71;63.58
72772;SHT30;60894;42.544;1.516;2024-02-04T00:05:16;5.62;63.66
72772;SHT30;60894;42.544;1.516;2024-02-04T00:07:44;5.69;63.24
72772;SHT30;60894;42.544;1.516;2024-02-04T00:10:11;5.70;63.06
72772;SHT30;60894;42.544;1.516;2024-02-04T00:12:38;5.63;63.42
72772;SHT30;60894;42.544;1.516;2024-02-04T00:15:06;5.55;63.87
72772;SHT30;60894;42.544;1.516;2024-02-04T00:17:33;5.52;63.76
72772;SHT30;60894;42.544;1.516;2024-02-04T00:20:01;5.28;64.50
72772;SHT30;60894;42.544;1.516;2024-02-04T00:22:32;5.32;64.29
72772;SHT30;60894;42.544;1.516;2024-02-04T00:25:00;5.39;64.34
72772;SHT30;60894;42.544;1.516;2024-02-04T00:27:30;5.53;64.05
72772;SHT30;60894;42.544;1.516;2024-02-04T00:29:58;5.47;63.59
72772;SHT30;60894;42.544;1.516;2024-02-04T00:32:25;5.65;63.42
72772;SHT30;60894;42.544;1.516;2024-02-04T00:34:52;5.59;62.95
72772;SHT30;60894;42.544;1.516;2024-02-04T00:37:20;5.49;63.57
72772;SHT30;60894;42.544;1.516;2024-02-04T00:39:48;5.47;63.70
72772;SHT30;60894;42.544;1.516;2024-02-04T00:42:15;5.53;63.42
72772;SHT30;60894;42.544;1.516;2024-02-04T00:44:42;5.47;63.34
72772;SHT30;60894;42.544;1.516;2024-02-04T00:47:09;5.40;64.07
72772;SHT30;60894;42.544;1.516;2024-02-04T00:49:36;5.38;64.39
72772;SHT30;60894;42.544;1.516;2024-02-04T00:52:04;5.29;64.30
72772;SHT30;60894;42.544;1.516;2024-02-04T00:54:31;5.34;64.13
72772;SHT30;60894;42.544;1.516;2024-02-04T00:57:00;5.29;64.24
72772;SHT30;60894;42.544;1.516;2024-02-04T00:59:28;5.35;63.94
72772;SHT30;60894;42.544;1.516;2024-02-04T01:01:55;5.45;63.41
72772;SHT30;60894;42.544;1.516;2024-02-04T01:04:23;5.36;63.47
72772;SHT30;60894;42.544;1.516;2024-02-04T01:06:50;5.49;62.81
72772;SHT30;60894;42.544;1.516;2024-02-04T01:09:17;5.34;63.58
72772;SHT30;60894;42.544;1.516;2024-02-04T01:11:44;5.26;63.99
72772;SHT30;60894;42.544;1.516;2024-02-04T01:14:13;5.32;64.08
72772;SHT30;60894;42.544;1.516;2024-02-04T01:16:40;5.19;64.04
72772;SHT30;60894;42.544;1.516;2024-02-04T01:19:07;5.09;64.69
72772;SHT30;60894;42.544;1.516;2024-02-04T01:21:34;5.07;64.56
72772;SHT30;60894;42.544;1.516;2024-02-04T01:24:01;5.02;64.94
72772;SHT30;60894;42.544;1.516;2024-02-04T01:26:28;5.08;64.62
72772;SHT30;60894;42.544;1.516;2024-02-04T01:28:56;5.08;64.75
72772;SHT30;60894;42.544;1.516;2024-02-04T01:31:25;5.05;65.04
72772;SHT30;60894;42.544;1.516;2024-02-04T01:33:52;5.04;65.33
72772;SHT30;60894;42.544;1.516;2024-02-04T01:36:19;5.02;65.16
72772;SHT30;60894;42.544;1.516;2024-02-04T01:38:46;5.09;64.94
72772;SHT30;60894;42.544;1.516;2024-02-04T01:41:14;5.15;64.58
72772;SHT30;60894;42.544;1.516;2024-02-04T01:43:41;5.12;64.47
72772;SHT30;60894;42.544;1.516;2024-02-04T01:46:08;5.12;64.30
72772;SHT30;60894;42.544;1.516;2024-02-04T01:48:37;5.07;64.52
72772;SHT30;60894;42.544;1.516;2024-02-04T01:51:05;5.04;64.57
72772;SHT30;60894;42.544;1.516;2024-02-04T01:53:33;4.96;65.12
72772;SHT30;60894;42.544;1.516;2024-02-04T01:56:01;5.11;64.36
72772;SHT30;60894;42.544;1.516;2024-02-04T01:58:29;5.11;63.92
72772;SHT30;60894;42.544;1.516;2024-02-04T02:00:57;5.05;64.06
72772;SHT30;60894;42.544;1.516;2024-02-04T02:03:24;4.99;64.56
72772;SHT30;60894;42.544;1.516;2024-02-04T02:05:54;4.96;64.22
72772;SHT30;60894;42.544;1.516;2024-02-04T02:08:22;4.78;65.29
72772;SHT30;60894;42.544;1.516;2024-02-04T02:10:51;4.68;65.55
72772;SHT30;60894;42.544;1.516;2024-02-04T02:13:27;4.68;65.63
72772;SHT30;60894;42.544;1.516;2024-02-04T02:15:59;4.67;65.53
72772;SHT30;60894;42.544;1.516;2024-02-04T02:18:33;4.73;65.20
72772;SHT30;60894;42.544;1.516;2024-02-04T02:21:16;4.74;65.51
72772;SHT30;60894;42.544;1.516;2024-02-04T02:23:53;4.58;65.54
72772;SHT30;60894;42.544;1.516;2024-02-04T02:26:29;4.53;65.78
72772;SHT30;60894;42.544;1.516;2024-02-04T02:28:56;4.67;65.50
72772;SHT30;60894;42.544;1.516;2024-02-04T02:31:24;4.75;65.18
72772;SHT30;60894;42.544;1.516;2024-02-04T02:33:51;4.68;65.28
72772;SHT30;60894;42.544;1.516;2024-02-04T02:36:23;4.65;65.21
72772;SHT30;60894;42.544;1.516;2024-02-04T02:38:58;4.65;65.76
72772;SHT30;60894;42.544;1.516;2024-02-04T02:41:30;4.63;65.81
72772;SHT30;60894;42.544;1.516;2024-02-04T02:43:58;4.63;65.39
72772;SHT30;60894;42.544;1.516;2024-02-04T02:46:27;4.64;65.64
72772;SHT30;60894;42.544;1.516;2024-02-04T02:48:55;4.56;65.69
72772;SHT30;60894;42.544;1.516;2024-02-04T02:51:22;4.60;65.28
72772;SHT30;60894;42.544;1.516;2024-02-04T02:53:49;4.52;65.69
72772;SHT30;60894;42.544;1.516;2024-02-04T02:56:17;4.50;66.15
72772;SHT30;60894;42.544;1.516;2024-02-04T02:58:45;4.54;66.09
72772;SHT30;60894;42.544;1.516;2024-02-04T03:01:12;4.47;65.96
72772;SHT30;60894;42.544;1.516;2024-02-04T03:03:39;4.49;65.63
72772;SHT30;60894;42.544;1.516;2024-02-04T03:06:06;4.53;66.01
72772;SHT30;60894;42.544;1.516;2024-02-04T03:08:34;4.63;65.97
72772;SHT30;60894;42.544;1.516;2024-02-04T03:11:01;4.64;65.62
72772;SHT30;60894;42.544;1.516;2024-02-04T03:13:28;4.54;65.75
72772;SHT30;60894;42.544;1.516;2024-02-04T03:15:57;4.63;65.01
72772;SHT30;60894;42.544;1.516;2024-02-04T03:18:25;4.57;65.06
72772;SHT30;60894;42.544;1.516;2024-02-04T03:20:52;4.43;65.64
72772;SHT30;60894;42.544;1.516;2024-02-04T03:23:19;4.43;66.13
72772;SHT30;60894;42.544;1.516;2024-02-04T03:25:46;4.36;66.18
72772;SHT30;60894;42.544;1.516;2024-02-04T03:28:14;4.44;65.88
72772;SHT30;60894;42.544;1.516;2024-02-04T03:30:41;4.40;65.72
72772;SHT30;60894;42.544;1.516;2024-02-04T03:33:09;4.32;65.85
72772;SHT30;60894;42.544;1.516;2024-02-04T03:35:36;4.22;66.88
72772;SHT30;60894;42.544;1.516;2024-02-04T03:38:04;4.32;66.90
72772;SHT30;60894;42.544;1.516;2024-02-04T03:40:31;4.22;66.62
72772;SHT30;60894;42.544;1.516;2024-02-04T03:42:58;4.22;66.73
72772;SHT30;60894;42.544;1.516;2024-02-04T03:45:25;4.17;66.68
72772;SHT30;60894;42.544;1.516;2024-02-04T03:47:52;4.12;66.90
72772;SHT30;60894;42.544;1.516;2024-02-04T03:50:21;4.22;66.68
72772;SHT30;60894;42.544;1.516;2024-02-04T03:52:48;4.29;66.84
72772;SHT30;60894;42.544;1.516;2024-02-04T03:55:15;4.24;66.43
72772;SHT30;60894;42.544;1.516;2024-02-04T03:57:42;4.20;65.98
72772;SHT30;60894;42.544;1.516;2024-02-04T04:00:10;4.05;66.74
72772;SHT30;60894;42.544;1.516;2024-02-04T04:02:37;4.06;66.75
72772;SHT30;60894;42.544;1.516;2024-02-04T04:05:05;4.20;66.49
72772;SHT30;60894;42.544;1.516;2024-02-04T04:07:34;4.19;66.45
72772;SHT30;60894;42.544;1.516;2024-02-04T04:10:01;4.13;66.88
72772;SHT30;60894;42.544;1.516;2024-02-04T04:12:29;4.16;66.42
72772;SHT30;60894;42.544;1.516;2024-02-04T04:14:56;3.99;67.25
72772;SHT30;60894;42.544;1.516;2024-02-04T04:17:23;4.12;66.79
72772;SHT30;60894;42.544;1.516;2024-02-04T04:19:50;4.02;66.77
72772;SHT30;60894;42.544;1.516;2024-02-04T04:22:17;4.05;66.56
72772;SHT30;60894;42.544;1.516;2024-02-04T04:24:46;4.12;66.54
72772;SHT30;60894;42.544;1.516;2024-02-04T04:27:13;4.15;66.14
72772;SHT30;60894;42.544;1.516;2024-02-04T04:29:40;4.19;65.95
72772;SHT30;60894;42.544;1.516;2024-02-04T04:32:07;4.16;66.29
72772;SHT30;60894;42.544;1.516;2024-02-04T04:34:34;4.03;66.85
72772;SHT30;60894;42.544;1.516;2024-02-04T04:37:01;4.03;66.76
72772;SHT30;60894;42.544;1.516;2024-02-04T04:39:28;3.82;67.63
72772;SHT30;60894;42.544;1.516;2024-02-04T04:41:57;3.92;67.05
72772;SHT30;60894;42.544;1.516;2024-02-04T04:44:24;3.96;67.07
72772;SHT30;60894;42.544;1.516;2024-02-04T04:46:51;4.07;66.63
72772;SHT30;60894;42.544;1.516;2024-02-04T04:49:18;4.15;66.31
72772;SHT30;60894;42.544;1.516;2024-02-04T04:51:45;4.12;66.29
72772;SHT30;60894;42.544;1.516;2024-02-04T04:54:13;4.06;66.17
72772;SHT30;60894;42.544;1.516;2024-02-04T04:56:40;3.96;66.52
72772;SHT30;60894;42.544;1.516;2024-02-04T04:59:10;3.98;66.45
72772;SHT30;60894;42.544;1.516;2024-02-04T05:01:37;4.05;66.52
72772;SHT30;60894;42.544;1.516;2024-02-04T05:04:04;4.05;66.51
72772;SHT30;60894;42.544;1.516;2024-02-04T05:06:31;3.98;66.59
72772;SHT30;60894;42.544;1.516;2024-02-04T05:08:58;3.92;66.48
72772;SHT30;60894;42.544;1.516;2024-02-04T05:11:25;3.82;67.33
72772;SHT30;60894;42.544;1.516;2024-02-04T05:13:52;3.78;68.01
72772;SHT30;60894;42.544;1.516;2024-02-04T05:16:20;3.75;67.83
72772;SHT30;60894;42.544;1.516;2024-02-04T05:18:48;3.84;67.54
72772;SHT30;60894;42.544;1.516;2024-02-04T05:21:15;3.75;68.10
72772;SHT30;60894;42.544;1.516;2024-02-04T05:23:42;3.85;67.80
72772;SHT30;60894;42.544;1.516;2024-02-04T05:26:09;3.88;67.04
72772;SHT30;60894;42.544;1.516;2024-02-04T05:28:36;3.85;67.00
72772;SHT30;60894;42.544;1.516;2024-02-04T05:31:03;3.72;67.67
72772;SHT30;60894;42.544;1.516;2024-02-04T05:33:32;3.74;67.43
72772;SHT30;60894;42.544;1.516;2024-02-04T05:35:59;3.78;67.00
72772;SHT30;60894;42.544;1.516;2024-02-04T05:38:26;3.74;67.23
72772;SHT30;60894;42.544;1.516;2024-02-04T05:40:53;3.70;67.94
72772;SHT30;60894;42.544;1.516;2024-02-04T05:43:21;3.72;67.76
72772;SHT30;60894;42.544;1.516;2024-02-04T05:45:48;3.75;67.79
72772;SHT30;60894;42.544;1.516;2024-02-04T05:48:15;3.81;66.94
72772;SHT30;60894;42.544;1.516;2024-02-04T05:50:43;3.75;67.12
72772;SHT30;60894;42.544;1.516;2024-02-04T05:53:10;3.85;66.60
72772;SHT30;60894;42.544;1.516;2024-02-04T05:55:38;3.85;66.86
72772;SHT30;60894;42.544;1.516;2024-02-04T05:58:05;3.74;66.62
72772;SHT30;60894;42.544;1.516;2024-02-04T06:00:32;3.85;67.36
72772;SHT30;60894;42.544;1.516;2024-02-04T06:02:59;3.92;66.96
72772;SHT30;60894;42.544;1.516;2024-02-04T06:05:27;3.74;67.08
72772;SHT30;60894;42.544;1.516;2024-02-04T06:07:56;3.71;67.59
72772;SHT30;60894;42.544;1.516;2024-02-04T06:10:23;3.74;67.28
72772;SHT30;60894;42.544;1.516;2024-02-04T06:12:50;3.75;67.03
72772;SHT30;60894;42.544;1.516;2024-02-04T06:15:17;3.72;67.11
72772;SHT30;60894;42.544;1.516;2024-02-04T06:17:46;3.71;67.72
72772;SHT30;60894;42.544;1.516;2024-02-04T06:20:13;3.65;67.54
72772;SHT30;60894;42.544;1.516;2024-02-04T06:22:40;3.65;67.20
72772;SHT30;60894;42.544;1.516;2024-02-04T06:25:09;3.64;66.94
72772;SHT30;60894;42.544;1.516;2024-02-04T06:27:36;3.51;67.60
72772;SHT30;60894;42.544;1.516;2024-02-04T06:30:05;3.50;67.82
72772;SHT30;60894;42.544;1.516;2024-02-04T06:32:32;3.62;67.56
72772;SHT30;60894;42.544;1.516;2024-02-04T06:34:59;3.53;67.65
72772;SHT30;60894;42.544;1.516;2024-02-04T06:37:26;3.41;67.67
72772;SHT30;60894;42.544;1.516;2024-02-04T06:39:53;3.41;68.37
72772;SHT30;60894;42.544;1.516;2024-02-04T06:42:21;3.48;67.97
72772;SHT30;60894;42.544;1.516;2024-02-04T06:44:48;3.57;67.66
72772;SHT30;60894;42.544;1.516;2024-02-04T06:47:15;3.53;68.13
72772;SHT30;60894;42.544;1.516;2024-02-04T06:49:43;3.57;67.81
72772;SHT30;60894;42.544;1.516;2024-02-04T06:52:11;3.48;68.10
72772;SHT30;60894;42.544;1.516;2024-02-04T06:54:38;3.55;67.75
72772;SHT30;60894;42.544;1.516;2024-02-04T06:57:05;3.60;67.34
72772;SHT30;60894;42.544;1.516;2024-02-04T06:59:34;3.50;67.60
72772;SHT30;60894;42.544;1.516;2024-02-04T07:02:01;3.50;67.83
72772;SHT30;60894;42.544;1.516;2024-02-04T07:04:28;3.50;68.20
72772;SHT30;60894;42.544;1.516;2024-02-04T07:06:55;3.44;68.39
72772;SHT30;60894;42.544;1.516;2024-02-04T07:09:22;3.37;67.98
72772;SHT30;60894;42.544;1.516;2024-02-04T07:11:49;3.30;68.80
72772;SHT30;60894;42.544;1.516;2024-02-04T07:14:16;3.45;68.26
72772;SHT30;60894;42.544;1.516;2024-02-04T07:16:44;3.50;67.43
72772;SHT30;60894;42.544;1.516;2024-02-04T07:19:12;3.54;67.43
72772;SHT30;60894;42.544;1.516;2024-02-04T07:21:39;3.77;66.63
72772;SHT30;60894;42.544;1.516;2024-02-04T07:24:06;3.62;66.94
72772;SHT30;60894;42.544;1.516;2024-02-04T07:26:33;3.57;67.10
72772;SHT30;60894;42.544;1.516;2024-02-04T07:29:00;3.53;67.58
72772;SHT30;60894;42.544;1.516;2024-02-04T07:31:27;3.64;67.53
72772;SHT30;60894;42.544;1.516;2024-02-04T07:33:56;3.72;67.13
72772;SHT30;60894;42.544;1.516;2024-02-04T07:36:23;3.65;66.64
72772;SHT30;60894;42.544;1.516;2024-02-04T07:38:49;3.55;67.07
72772;SHT30;60894;42.544;1.516;2024-02-04T07:41:17;3.44;67.83
72772;SHT30;60894;42.544;1.516;2024-02-04T07:43:44;3.35;68.21
72772;SHT30;60894;42.544;1.516;2024-02-04T07:46:11;3.40;68.81
72772;SHT30;60894;42.544;1.516;2024-02-04T07:48:38;3.48;68.13
72772;SHT30;60894;42.544;1.516;2024-02-04T07:51:07;3.50;68.18
72772;SHT30;60894;42.544;1.516;2024-02-04T07:53:35;3.58;68.16
72772;SHT30;60894;42.544;1.516;2024-02-04T07:56:03;3.61;67.75
72772;SHT30;60894;42.544;1.516;2024-02-04T07:58:32;3.77;67.06
72772;SHT30;60894;42.544;1.516;2024-02-04T08:00:59;3.77;67.22
72772;SHT30;60894;42.544;1.516;2024-02-04T08:03:26;3.77;67.44
72772;SHT30;60894;42.544;1.516;2024-02-04T08:05:53;3.84;66.69
72772;SHT30;60894;42.544;1.516;2024-02-04T08:08:22;3.78;66.23
72772;SHT30;60894;42.544;1.516;2024-02-04T08:10:49;3.78;65.96
72772;SHT30;60894;42.544;1.516;2024-02-04T08:13:16;3.86;65.90
72772;SHT30;60894;42.544;1.516;2024-02-04T08:15:43;3.91;66.17
72772;SHT30;60894;42.544;1.516;2024-02-04T08:18:10;3.88;65.65
72772;SHT30;60894;42.544;1.516;2024-02-04T08:20:37;4.07;64.81
72772;SHT30;60894;42.544;1.516;2024-02-04T08:23:04;4.10;64.82
72772;SHT30;60894;42.544;1.516;2024-02-04T08:25:32;4.22;64.45
72772;SHT30;60894;42.544;1.516;2024-02-04T08:28:00;4.30;64.46
72772;SHT30;60894;42.544;1.516;2024-02-04T08:30:27;4.46;63.17
72772;SHT30;60894;42.544;1.516;2024-02-04T08:32:54;4.56;63.20
72772;SHT30;60894;42.544;1.516;2024-02-04T08:35:21;4.54;64.17
72772;SHT30;60894;42.544;1.516;2024-02-04T08:37:48;4.64;63.90
72772;SHT30;60894;42.544;1.516;2024-02-04T08:40:15;4.83;63.32
72772;SHT30;60894;42.544;1.516;2024-02-04T08:42:44;5.09;61.75
72772;SHT30;60894;42.544;1.516;2024-02-04T08:45:11;5.42;60.69
72772;SHT30;60894;42.544;1.516;2024-02-04T08:47:38;5.47;60.35
72772;SHT30;60894;42.544;1.516;2024-02-04T08:50:06;5.63;59.62
72772;SHT30;60894;42.544;1.516;2024-02-04T08:52:34;6.03;58.33
72772;SHT30;60894;42.544;1.516;2024-02-04T08:55:01;6.04;58.18
72772;SHT30;60894;42.544;1.516;2024-02-04T08:57:29;6.25;57.48
72772;SHT30;60894;42.544;1.516;2024-02-04T08:59:58;6.38;57.37
72772;SHT30;60894;42.544;1.516;2024-02-04T09:02:25;6.50;56.77
72772;SHT30;60894;42.544;1.516;2024-02-04T09:04:52;7.00;55.26
72772;SHT30;60894;42.544;1.516;2024-02-04T09:07:20;6.95;54.84
72772;SHT30;60894;42.544;1.516;2024-02-04T09:09:46;7.37;53.28
72772;SHT30;60894;42.544;1.516;2024-02-04T09:12:13;7.40;53.50
72772;SHT30;60894;42.544;1.516;2024-02-04T09:14:40;7.32;53.74
72772;SHT30;60894;42.544;1.516;2024-02-04T09:17:08;7.51;53.40
72772;SHT30;60894;42.544;1.516;2024-02-04T09:19:35;7.69;53.44
72772;SHT30;60894;42.544;1.516;2024-02-04T09:22:03;8.00;52.47
72772;SHT30;60894;42.544;1.516;2024-02-04T09:24:30;8.13;52.22
72772;SHT30;60894;42.544;1.516;2024-02-04T09:26:57;8.43;51.38
72772;SHT30;60894;42.544;1.516;2024-02-04T09:29:24;8.65;50.69
72772;SHT30;60894;42.544;1.516;2024-02-04T09:31:51;8.67;50.57
72772;SHT30;60894;42.544;1.516;2024-02-04T09:34:21;8.87;49.97
72772;SHT30;60894;42.544;1.516;2024-02-04T09:36:48;9.15;49.07
72772;SHT30;60894;42.544;1.516;2024-02-04T09:39:15;9.35;48.49
72772;SHT30;60894;42.544;1.516;2024-02-04T09:41:43;9.77;47.61
72772;SHT30;60894;42.544;1.516;2024-02-04T09:44:12;9.77;47.10
72772;SHT30;60894;42.544;1.516;2024-02-04T09:46:39;10.07;46.00
72772;SHT30;60894;42.544;1.516;2024-02-04T09:49:07;10.38;44.77
72772;SHT30;60894;42.544;1.516;2024-02-04T09:51:36;10.66;44.22
72772;SHT30;60894;42.544;1.516;2024-02-04T09:54:05;10.80;43.92
72772;SHT30;60894;42.544;1.516;2024-02-04T09:56:33;10.77;43.51
72772;SHT30;60894;42.544;1.516;2024-02-04T09:59:01;11.31;43.08
72772;SHT30;60894;42.544;1.516;2024-02-04T10:01:29;11.37;42.47
72772;SHT30;60894;42.544;1.516;2024-02-04T10:03:56;12.11;41.16
72772;SHT30;60894;42.544;1.516;2024-02-04T10:06:24;12.32;40.89
72772;SHT30;60894;42.544;1.516;2024-02-04T10:08:52;12.61;39.80
72772;SHT30;60894;42.544;1.516;2024-02-04T10:11:20;12.64;39.68
72772;SHT30;60894;42.544;1.516;2024-02-04T10:13:49;12.95;39.61
72772;SHT30;60894;42.544;1.516;2024-02-04T10:16:16;13.01;38.33
72772;SHT30;60894;42.544;1.516;2024-02-04T10:18:44;13.38;37.88
72772;SHT30;60894;42.544;1.516;2024-02-04T10:21:15;13.90;36.71
72772;SHT30;60894;42.544;1.516;2024-02-04T10:23:43;13.76;36.19
72772;SHT30;60894;42.544;1.516;2024-02-04T10:26:12;14.20;36.29
72772;SHT30;60894;42.544;1.516;2024-02-04T10:28:39;14.30;36.09
72772;SHT30;60894;42.544;1.516;2024-02-04T10:31:08;14.74;35.66
72772;SHT30;60894;42.544;1.516;2024-02-04T10:33:36;15.08;35.34
72772;SHT30;60894;42.544;1.516;2024-02-04T10:36:04;14.98;34.54
72772;SHT30;60894;42.544;1.516;2024-02-04T10:38:32;15.16;34.11
72772;SHT30;60894;42.544;1.516;2024-02-04T10:41:00;15.46;33.94
72772;SHT30;60894;42.544;1.516;2024-02-04T10:43:32;15.87;33.89
72772;SHT30;60894;42.544;1.516;2024-02-04T10:46:01;16.21;33.57
72772;SHT30;60894;42.544;1.516;2024-02-04T10:48:34;16.55;32.70
72772;SHT30;60894;42.544;1.516;2024-02-04T10:51:11;16.45;31.30
72772;SHT30;60894;42.544;1.516;2024-02-04T10:53:41;16.59;32.05
72772;SHT30;60894;42.544;1.516;2024-02-04T10:56:13;16.30;33.22
72772;SHT30;60894;42.544;1.516;2024-02-04T10:58:43;17.02;32.17
72772;SHT30;60894;42.544;1.516;2024-02-04T11:01:11;16.84;31.55
72772;SHT30;60894;42.544;1.516;2024-02-04T11:03:39;17.41;31.38
72772;SHT30;60894;42.544;1.516;2024-02-04T11:06:07;17.82;31.09
72772;SHT30;60894;42.544;1.516;2024-02-04T11:08:35;17.78;31.24
72772;SHT30;60894;42.544;1.516;2024-02-04T11:11:03;17.93;30.65
72772;SHT30;60894;42.544;1.516;2024-02-04T11:13:31;17.88;30.65
72772;SHT30;60894;42.544;1.516;2024-02-04T11:16:04;18.09;30.24
72772;SHT30;60894;42.544;1.516;2024-02-04T11:18:54;18.36;29.49
72772;SHT30;60894;42.544;1.516;2024-02-04T11:21:44;18.19;29.24
72772;SHT30;60894;42.544;1.516;2024-02-04T11:24:26;18.30;29.49
72772;SHT30;60894;42.544;1.516;2024-02-04T11:26:58;18.46;28.69
72772;SHT30;60894;42.544;1.516;2024-02-04T11:29:26;18.68;28.16
72772;SHT30;60894;42.544;1.516;2024-02-04T11:31:54;18.44;28.76
72772;SHT30;60894;42.544;1.516;2024-02-04T11:34:23;18.61;28.13
72772;SHT30;60894;42.544;1.516;2024-02-04T11:36:50;18.92;27.96
72772;SHT30;60894;42.544;1.516;2024-02-04T11:39:18;18.68;28.19
72772;SHT30;60894;42.544;1.516;2024-02-04T11:41:48;18.53;28.71
72772;SHT30;60894;42.544;1.516;2024-02-04T11:44:20;18.75;28.28
72772;SHT30;60894;42.544;1.516;2024-02-04T11:46:47;18.91;28.20
72772;SHT30;60894;42.544;1.516;2024-02-04T11:49:17;18.97;28.34
72772;SHT30;60894;42.544;1.516;2024-02-04T11:51:46;19.08;28.37
72772;SHT30;60894;42.544;1.516;2024-02-04T11:54:15;18.87;28.77
72772;SHT30;60894;42.544;1.516;2024-02-04T11:56:44;19.28;28.37
72772;SHT30;60894;42.544;1.516;2024-02-04T11:59:12;19.48;27.96
72772;SHT30;60894;42.544;1.516;2024-02-04T12:01:39;19.49;28.13
72772;SHT30;60894;42.544;1.516;2024-02-04T12:04:11;19.69;28.19
72772;SHT30;60894;42.544;1.516;2024-02-04T12:06:41;19.55;28.23
72772;SHT30;60894;42.544;1.516;2024-02-04T12:09:08;19.77;28.22
72772;SHT30;60894;42.544;1.516;2024-02-04T12:11:36;19.74;28.55
72772;SHT30;60894;42.544;1.516;2024-02-04T12:14:05;19.73;28.25
72772;SHT30;60894;42.544;1.516;2024-02-04T12:16:33;19.97;28.18
72772;SHT30;60894;42.544;1.516;2024-02-04T12:19:02;20.27;28.08
72772;SHT30;60894;42.544;1.516;2024-02-04T12:21:30;20.76;27.54
72772;SHT30;60894;42.544;1.516;2024-02-04T12:23:59;20.58;27.11
72772;SHT30;60894;42.544;1.516;2024-02-04T12:26:26;20.95;27.20
72772;SHT30;60894;42.544;1.516;2024-02-04T12:28:53;21.12;26.99
72772;SHT30;60894;42.544;1.516;2024-02-04T12:31:25;21.04;27.01
72772;SHT30;60894;42.544;1.516;2024-02-04T12:33:55;20.92;26.99
72772;SHT30;60894;42.544;1.516;2024-02-04T12:36:25;20.67;27.07
72772;SHT30;60894;42.544;1.516;2024-02-04T12:38:53;20.56;26.83
72772;SHT30;60894;42.544;1.516;2024-02-04T12:41:22;19.53;28.13
72772;SHT30;60894;42.544;1.516;2024-02-04T12:43:50;19.52;27.99
72772;SHT30;60894;42.544;1.516;2024-02-04T12:46:18;19.50;27.93
72772;SHT30;60894;42.544;1.516;2024-02-04T12:48:50;19.39;28.94
72772;SHT30;60894;42.544;1.516;2024-02-04T12:51:23;19.22;28.33
72772;SHT30;60894;42.544;1.516;2024-02-04T12:54:02;19.96;27.79
72772;SHT30;60894;42.544;1.516;2024-02-04T12:56:41;20.20;27.12
72772;SHT30;60894;42.544;1.516;2024-02-04T12:59:09;19.91;27.63
72772;SHT30;60894;42.544;1.516;2024-02-04T13:01:36;19.65;27.45
72772;SHT30;60894;42.544;1.516;2024-02-04T13:04:04;20.22;26.83
72772;SHT30;60894;42.544;1.516;2024-02-04T13:06:31;20.51;26.75
72772;SHT30;60894;42.544;1.516;2024-02-04T13:08:58;19.97;27.57
72772;SHT30;60894;42.544;1.516;2024-02-04T13:11:26;20.04;27.03
72772;SHT30;60894;42.544;1.516;2024-02-04T13:13:54;20.32;27.01
72772;SHT30;60894;42.544;1.516;2024-02-04T13:16:21;20.21;26.90
72772;SHT30;60894;42.544;1.516;2024-02-04T13:18:52;20.52;26.69
72772;SHT30;60894;42.544;1.516;2024-02-04T13:21:20;20.40;26.67
72772;SHT30;60894;42.544;1.516;2024-02-04T13:23:47;20.40;26.39
72772;SHT30;60894;42.544;1.516;2024-02-04T13:26:15;20.58;26.39
72772;SHT30;60894;42.544;1.516;2024-02-04T13:28:42;20.49;26.37
72772;SHT30;60894;42.544;1.516;2024-02-04T13:31:11;20.41;26.44
72772;SHT30;60894;42.544;1.516;2024-02-04T13:33:39;20.20;26.50
72772;SHT30;60894;42.544;1.516;2024-02-04T13:36:07;19.96;26.61
72772;SHT30;60894;42.544;1.516;2024-02-04T13:38:34;20.22;26.39
72772;SHT30;60894;42.544;1.516;2024-02-04T13:41:03;19.97;26.29
72772;SHT30;60894;42.544;1.516;2024-02-04T13:43:33;20.41;25.89
72772;SHT30;60894;42.544;1.516;2024-02-04T13:46:00;20.71;25.27
72772;SHT30;60894;42.544;1.516;2024-02-04T13:48:29;20.76;25.32
72772;SHT30;60894;42.544;1.516;2024-02-04T13:50:56;20.55;25.13
72772;SHT30;60894;42.544;1.516;2024-02-04T13:53:23;20.92;24.49
72772;SHT30;60894;42.544;1.516;2024-02-04T13:55:50;21.19;23.90
72772;SHT30;60894;42.544;1.516;2024-02-04T13:58:17;21.07;24.38
72772;SHT30;60894;42.544;1.516;2024-02-04T14:00:45;21.34;24.13
72772;SHT30;60894;42.544;1.516;2024-02-04T14:03:12;21.68;23.69
72772;SHT30;60894;42.544;1.516;2024-02-04T14:05:41;21.32;24.31
72772;SHT30;60894;42.544;1.516;2024-02-04T14:08:08;21.60;23.71
72772;SHT30;60894;42.544;1.516;2024-02-04T14:10:36;21.88;24.14
72772;SHT30;60894;42.544;1.516;2024-02-04T14:13:04;21.70;24.48
72772;SHT30;60894;42.544;1.516;2024-02-04T14:15:31;21.88;24.03
72772;SHT30;60894;42.544;1.516;2024-02-04T14:17:59;21.85;24.23
72772;SHT30;60894;42.544;1.516;2024-02-04T14:20:26;21.75;24.08
72772;SHT30;60894;42.544;1.516;2024-02-04T14:22:55;21.81;23.86
72772;SHT30;60894;42.544;1.516;2024-02-04T14:25:22;21.39;24.70
72772;SHT30;60894;42.544;1.516;2024-02-04T14:27:50;21.60;24.60
72772;SHT30;60894;42.544;1.516;2024-02-04T14:30:17;21.98;23.82
72772;SHT30;60894;42.544;1.516;2024-02-04T14:32:44;22.00;23.89
72772;SHT30;60894;42.544;1.516;2024-02-04T14:35:11;22.05;23.55
72772;SHT30;60894;42.544;1.516;2024-02-04T14:37:38;21.94;23.94
72772;SHT30;60894;42.544;1.516;2024-02-04T14:40:08;21.94;23.61
72772;SHT30;60894;42.544;1.516;2024-02-04T14:42:36;21.50;24.10
72772;SHT30;60894;42.544;1.516;2024-02-04T14:45:03;21.44;24.33
72772;SHT30;60894;42.544;1.516;2024-02-04T14:47:31;21.57;23.87
72772;SHT30;60894;42.544;1.516;2024-02-04T14:49:58;21.40;23.79
72772;SHT30;60894;42.544;1.516;2024-02-04T14:52:26;21.58;23.90
72772;SHT30;60894;42.544;1.516;2024-02-04T14:54:53;21.39;24.21
72772;SHT30;60894;42.544;1.516;2024-02-04T14:57:21;21.43;24.93
72772;SHT30;60894;42.544;1.516;2024-02-04T14:59:48;21.37;26.42
72772;SHT30;60894;42.544;1.516;2024-02-04T15:02:15;20.75;26.78
72772;SHT30;60894;42.544;1.516;2024-02-04T15:04:42;20.64;27.61
72772;SHT30;60894;42.544;1.516;2024-02-04T15:07:09;21.19;26.78
72772;SHT30;60894;42.544;1.516;2024-02-04T15:09:37;20.00;27.81
72772;SHT30;60894;42.544;1.516;2024-02-04T15:12:04;19.58;27.92
72772;SHT30;60894;42.544;1.516;2024-02-04T15:14:34;18.91;29.03
72772;SHT30;60894;42.544;1.516;2024-02-04T15:17:01;18.61;29.13
72772;SHT30;60894;42.544;1.516;2024-02-04T15:19:29;18.06;30.47
72772;SHT30;60894;42.544;1.516;2024-02-04T15:21:58;17.92;30.35
72772;SHT30;60894;42.544;1.516;2024-02-04T15:24:26;17.40;33.06
72772;SHT30;60894;42.544;1.516;2024-02-04T15:26:54;17.30;33.04
72772;SHT30;60894;42.544;1.516;2024-02-04T15:29:22;16.73;33.39
72772;SHT30;60894;42.544;1.516;2024-02-04T15:31:51;16.39;34.63
72772;SHT30;60894;42.544;1.516;2024-02-04T15:34:19;15.98;35.72
72772;SHT30;60894;42.544;1.516;2024-02-04T15:36:46;15.90;35.82
72772;SHT30;60894;42.544;1.516;2024-02-04T15:39:13;15.51;36.43
72772;SHT30;60894;42.544;1.516;2024-02-04T15:41:40;15.33;36.74
72772;SHT30;60894;42.544;1.516;2024-02-04T15:44:08;15.36;35.70